Ana Sayfa
METAR-TAF:

METAR-TAF

Havaalanları :

Gran Canaria Havalimanı

Gran Canaria, İspanya

Enlem: 27-56N, Boylam: 015-23W, yükseklik: 23 m

Güncel hava durumu gözlemi

Rapor saat 23:30 UTC de 43 dakika önce yapıldı.
Rüzgar kuzeydan 14 kt
Sıcaklık 23°C
Nem 73%
Basınç 1016 hPa
Görüş mesafesi 10 km veya daha fazla
2200 ft yükseklikte parçalı bulutlu

METAR: GCLP 202330Z 36014KT 9999 SCT022 23/18 Q1016 NOSIG

Saat: 01:13 (00:13 UTC)

Tahmin

Rapor saat 20:00 UTC de 4 saat ve 13 dakika önce yapıldı.
Ayın 20'si saat 21 UTC'den ayın 21'si saat 21 UTC'ye kadar geçerli Tahmin
Rüzgar kuzeydan 19 kt
Görüş mesafesi 10 km veya daha fazla
2000 ft yükseklikte az bulutlu

TAF: GCLP 202000Z 2021/2121 36019KT 9999 FEW020 TX27/2114Z TN22/2106Z

4.000'den fazla havaalanı için hava durumu gözlemleri ve tahminleri (METAR ve TAF raporları).

Kullanılabilir istasyonlar harita üzerinde sarı ve kırmızı noktalarla gösterilir.

İstasyonun adını görmek için fareyi noktanın üzerinde gezdirin.

Sonrasında hava gözlem ve tahminlerini görmek için tıklayın.

Haritayı değiştirmek için: yaklaştırmak için siyah artı işaretli yeşil düğmeye ve uzaklaştırmak için de eksi işaretli düğmeye hızla tıklayın; bitişik haritalar için yeşil okları kullanın.


METAR-TAF: